createdAt,value
2022-10-12T00:00:19.136Z,8.78
2022-10-12T00:02:45.728Z,8.77
2022-10-12T00:05:12.644Z,8.74
2022-10-12T00:07:40.075Z,8.68
2022-10-12T00:10:07.329Z,8.69
2022-10-12T00:12:34.241Z,8.68
2022-10-12T00:15:00.914Z,8.66
2022-10-12T00:17:27.600Z,8.65
2022-10-12T00:19:54.445Z,8.62
2022-10-12T00:22:21.130Z,8.59
2022-10-12T00:24:47.859Z,8.55
2022-10-12T00:27:14.517Z,8.50
2022-10-12T00:29:41.249Z,8.43
2022-10-12T00:32:07.871Z,8.36
2022-10-12T00:34:34.750Z,8.28
2022-10-12T00:37:01.356Z,8.18
2022-10-12T00:39:28.098Z,8.09
2022-10-12T00:41:54.752Z,7.99
2022-10-12T00:44:35.263Z,7.91
2022-10-12T00:47:05.311Z,7.83
2022-10-12T00:49:34.395Z,7.78
2022-10-12T00:52:03.149Z,7.74
2022-10-12T00:54:34.869Z,7.72
2022-10-12T00:57:02.522Z,7.70
2022-10-12T00:59:32.471Z,7.66
2022-10-12T01:01:59.194Z,7.67
2022-10-12T01:04:25.875Z,7.67
2022-10-12T01:06:52.632Z,7.66
2022-10-12T01:09:19.905Z,7.65
2022-10-12T01:11:46.600Z,7.64
2022-10-12T01:14:13.276Z,7.61
2022-10-12T01:17:04.381Z,7.57
2022-10-12T01:19:52.649Z,7.52
2022-10-12T01:22:23.100Z,7.47
2022-10-12T01:24:54.305Z,7.43
2022-10-12T01:27:23.732Z,7.36
2022-10-12T01:30:09.791Z,7.35
2022-10-12T01:33:00.900Z,7.33
2022-10-12T01:35:49.305Z,7.31
2022-10-12T01:38:50.217Z,7.31
2022-10-12T01:41:32.698Z,7.32
2022-10-12T01:43:59.389Z,7.33
2022-10-12T01:46:26.026Z,7.33
2022-10-12T01:49:00.480Z,7.33
2022-10-12T01:52:08.598Z,7.33
2022-10-12T01:54:43.412Z,7.33
2022-10-12T01:57:18.202Z,7.32
2022-10-12T01:59:52.713Z,7.32
2022-10-12T02:02:40.739Z,7.29
2022-10-12T02:05:07.368Z,7.25
2022-10-12T02:07:49.359Z,7.22
2022-10-12T02:10:27.855Z,7.19
2022-10-12T02:12:54.719Z,7.17
2022-10-12T02:15:21.373Z,7.14
2022-10-12T02:17:48.383Z,7.10
2022-10-12T02:20:16.642Z,7.05
2022-10-12T02:22:43.294Z,7.01
2022-10-12T02:25:11.991Z,6.97
2022-10-12T02:27:40.188Z,6.94
2022-10-12T02:30:07.842Z,6.91
2022-10-12T02:32:38.599Z,6.89
2022-10-12T02:35:09.604Z,6.87
2022-10-12T02:37:37.395Z,6.86
2022-10-12T02:40:11.761Z,6.83
2022-10-12T02:43:08.324Z,6.81
2022-10-12T02:45:26.219Z,6.77
2022-10-12T02:47:53.535Z,6.73
2022-10-12T02:50:20.377Z,6.72
2022-10-12T02:52:46.964Z,6.72
2022-10-12T02:55:13.637Z,6.72
2022-10-12T02:57:40.455Z,6.72
2022-10-12T03:00:07.738Z,6.73
2022-10-12T03:02:34.395Z,6.73
2022-10-12T03:05:01.070Z,6.74
2022-10-12T03:07:27.834Z,6.74
2022-10-12T03:09:54.552Z,6.76
2022-10-12T03:12:21.217Z,6.77
2022-10-12T03:14:47.926Z,6.77
2022-10-12T03:17:14.579Z,6.79
2022-10-12T03:19:41.332Z,6.81
2022-10-12T03:22:07.938Z,6.81
2022-10-12T03:24:34.612Z,6.85
2022-10-12T03:27:01.306Z,6.86
2022-10-12T03:29:28.033Z,6.86
2022-10-12T03:31:54.611Z,6.84
2022-10-12T03:34:21.306Z,6.82
2022-10-12T03:36:47.962Z,6.79
2022-10-12T03:39:14.800Z,6.76
2022-10-12T03:41:41.383Z,6.71
2022-10-12T03:44:08.038Z,6.68
2022-10-12T03:46:34.730Z,6.65
2022-10-12T03:49:01.499Z,6.61
2022-10-12T03:51:28.103Z,6.60
2022-10-12T03:53:54.763Z,6.59
2022-10-12T03:56:21.433Z,6.58
2022-10-12T03:58:48.113Z,6.58
2022-10-12T04:01:14.889Z,6.57
2022-10-12T04:03:41.517Z,6.56
2022-10-12T04:06:08.246Z,6.55
2022-10-12T04:11:24.617Z,6.54
2022-10-12T04:13:51.317Z,6.52
2022-10-12T04:16:18.088Z,6.52
2022-10-12T04:18:44.752Z,6.52
2022-10-12T04:21:13.823Z,6.52
2022-10-12T04:23:41.261Z,6.51
2022-10-12T04:26:08.001Z,6.50
2022-10-12T04:28:34.714Z,6.51
2022-10-12T04:31:01.431Z,6.52
2022-10-12T04:33:28.253Z,6.52
2022-10-12T04:35:54.865Z,6.53
2022-10-12T04:38:21.576Z,6.54
2022-10-12T04:40:48.662Z,6.54
2022-10-12T04:43:16.036Z,6.53
2022-10-12T04:45:42.762Z,6.53
2022-10-12T04:48:09.460Z,6.53
2022-10-12T04:50:36.229Z,6.53
2022-10-12T04:53:02.912Z,6.53
2022-10-12T04:55:29.550Z,6.54
2022-10-12T04:57:56.360Z,6.55
2022-10-12T05:00:23.024Z,6.57
2022-10-12T05:02:49.750Z,6.58
2022-10-12T05:05:16.422Z,6.61
2022-10-12T05:07:43.163Z,6.64
2022-10-12T05:10:10.016Z,6.69
2022-10-12T05:12:36.967Z,6.73
2022-10-12T05:15:04.232Z,6.78
2022-10-12T05:17:30.999Z,6.82
2022-10-12T05:19:57.671Z,6.86
2022-10-12T05:22:24.370Z,6.86
2022-10-12T05:24:53.795Z,6.95
2022-10-12T05:27:21.106Z,7.01
2022-10-12T05:29:47.852Z,7.05
2022-10-12T05:32:14.611Z,7.12
2022-10-12T05:34:42.383Z,7.18
2022-10-12T05:37:09.234Z,7.24
2022-10-12T05:39:37.259Z,7.29
2022-10-12T05:42:04.043Z,7.34
2022-10-12T05:44:30.729Z,7.39
2022-10-12T05:46:57.457Z,7.44
2022-10-12T05:49:24.142Z,7.49
2022-10-12T05:51:50.875Z,7.53
2022-10-12T05:54:17.475Z,7.58
2022-10-12T05:56:44.131Z,7.63
2022-10-12T05:59:11.621Z,7.66
2022-10-12T06:01:38.426Z,7.71
2022-10-12T06:04:06.220Z,7.76
2022-10-12T06:06:32.961Z,7.81
2022-10-12T06:08:59.710Z,7.84
2022-10-12T06:11:26.375Z,7.85
2022-10-12T06:13:54.329Z,7.88
2022-10-12T06:16:21.152Z,7.92
2022-10-12T06:18:47.748Z,7.98
2022-10-12T06:21:32.906Z,8.03
2022-10-12T06:24:00.168Z,8.09
2022-10-12T06:26:26.891Z,8.12
2022-10-12T06:28:53.627Z,8.17
2022-10-12T06:31:20.751Z,8.22
2022-10-12T06:33:47.636Z,8.29
2022-10-12T06:36:14.354Z,8.35
2022-10-12T06:38:41.097Z,8.42
2022-10-12T06:41:07.705Z,8.46
2022-10-12T06:43:34.467Z,8.49
2022-10-12T06:46:01.849Z,8.52
2022-10-12T06:48:28.689Z,8.56
2022-10-12T06:50:58.457Z,8.58
2022-10-12T06:53:28.604Z,8.60
2022-10-12T06:55:55.322Z,8.63
2022-10-12T06:58:22.001Z,8.68
2022-10-12T07:00:48.943Z,8.74
2022-10-12T07:03:16.617Z,8.79
2022-10-12T07:05:43.434Z,8.85
2022-10-12T07:08:10.055Z,8.89
2022-10-12T07:10:38.075Z,8.94
2022-10-12T07:13:04.802Z,8.98
2022-10-12T07:15:31.461Z,8.98
2022-10-12T07:17:58.211Z,9.04
2022-10-12T07:20:24.884Z,9.07
2022-10-12T07:22:52.857Z,9.09
2022-10-12T07:25:19.540Z,9.16
2022-10-12T07:27:49.404Z,9.21
2022-10-12T07:30:16.269Z,9.28
2022-10-12T07:32:44.542Z,9.36
2022-10-12T07:35:11.337Z,9.44
2022-10-12T07:37:38.256Z,9.48
2022-10-12T07:40:05.756Z,9.53
2022-10-12T07:42:32.490Z,9.58
2022-10-12T07:44:59.137Z,9.63
2022-10-12T07:47:25.849Z,9.68
2022-10-12T07:49:52.457Z,9.73
2022-10-12T07:52:19.171Z,9.77
2022-10-12T07:54:45.968Z,9.86
2022-10-12T07:57:12.684Z,9.91
2022-10-12T07:59:39.338Z,9.99
2022-10-12T08:02:06.104Z,10.06
2022-10-12T08:04:32.887Z,10.13
2022-10-12T08:06:59.673Z,10.26
2022-10-12T08:09:26.411Z,10.33
2022-10-12T08:11:53.038Z,10.49
2022-10-12T08:14:19.782Z,10.59
2022-10-12T08:16:46.468Z,10.68
2022-10-12T08:19:13.457Z,10.77
2022-10-12T08:21:41.313Z,10.85
2022-10-12T08:24:09.097Z,10.92
2022-10-12T08:26:36.418Z,11.05
2022-10-12T08:29:03.758Z,11.14
2022-10-12T08:31:30.492Z,11.25
2022-10-12T08:33:57.574Z,11.34
2022-10-12T08:36:24.497Z,11.39
2022-10-12T08:38:54.068Z,11.48
2022-10-12T08:41:48.364Z,11.54
2022-10-12T08:44:52.651Z,11.58
2022-10-12T08:47:30.548Z,11.63
2022-10-12T08:49:57.232Z,11.70
2022-10-12T08:52:29.039Z,11.77
2022-10-12T08:54:59.059Z,11.82
2022-10-12T08:57:25.742Z,11.89
2022-10-12T08:59:52.456Z,11.96
2022-10-12T09:02:38.466Z,12.02
2022-10-12T09:05:09.866Z,12.09
2022-10-12T09:07:46.447Z,12.13
2022-10-12T09:10:27.878Z,12.18
2022-10-12T09:13:00.163Z,12.25
2022-10-12T09:15:32.631Z,12.31
2022-10-12T09:18:00.461Z,12.36
2022-10-12T09:20:44.270Z,12.41
2022-10-12T09:23:27.953Z,12.47
2022-10-12T09:25:58.536Z,12.51
2022-10-12T09:28:40.139Z,12.56
2022-10-12T09:31:10.043Z,12.63
2022-10-12T09:33:42.148Z,12.67
2022-10-12T09:36:10.168Z,12.72
2022-10-12T09:38:38.188Z,12.77
2022-10-12T09:41:05.159Z,12.84
2022-10-12T09:43:31.896Z,12.89
2022-10-12T09:46:00.072Z,12.94
2022-10-12T09:48:26.793Z,12.99
2022-10-12T09:51:01.475Z,13.04
2022-10-12T09:53:36.210Z,13.07
2022-10-12T09:56:04.982Z,13.09
2022-10-12T09:58:39.642Z,13.14
2022-10-12T10:01:25.429Z,13.21
2022-10-12T10:04:14.736Z,13.29
2022-10-12T10:06:43.788Z,13.38
2022-10-12T10:09:32.956Z,13.45
2022-10-12T10:12:24.215Z,13.51
2022-10-12T10:14:51.753Z,13.56
2022-10-12T10:17:24.697Z,13.58
2022-10-12T10:19:51.929Z,13.57
2022-10-12T10:22:19.531Z,13.55
2022-10-12T10:24:50.768Z,13.52
2022-10-12T10:27:30.063Z,13.46
2022-10-12T10:30:29.730Z,13.41
2022-10-12T10:33:13.550Z,13.35
2022-10-12T10:35:40.275Z,13.31
2022-10-12T10:38:09.253Z,13.30
2022-10-12T10:40:36.027Z,13.21
2022-10-12T10:43:05.338Z,13.22
2022-10-12T10:45:52.303Z,13.30
2022-10-12T10:48:24.134Z,13.27
2022-10-12T10:51:02.507Z,13.21
2022-10-12T10:53:46.811Z,13.16
2022-10-12T10:56:21.910Z,13.11
2022-10-12T10:58:56.312Z,13.09
2022-10-12T11:01:56.220Z,13.08
2022-10-12T11:04:29.402Z,13.08
2022-10-12T11:06:58.210Z,13.07
2022-10-12T11:09:32.396Z,13.11
2022-10-12T11:12:14.636Z,13.16
2022-10-12T11:14:52.495Z,13.15
2022-10-12T11:17:25.068Z,13.11
2022-10-12T11:20:01.008Z,13.06
2022-10-12T11:22:36.928Z,13.01
2022-10-12T11:25:14.673Z,12.99
2022-10-12T11:27:42.803Z,12.98
2022-10-12T11:30:17.052Z,12.98
2022-10-12T11:32:49.502Z,12.97
2022-10-12T11:35:27.634Z,12.92
2022-10-12T11:37:58.146Z,12.87
2022-10-12T11:43:22.656Z,12.79
2022-10-12T11:45:51.602Z,12.76
2022-10-12T11:48:30.141Z,12.76
2022-10-12T11:51:00.086Z,12.78
2022-10-12T11:53:33.431Z,12.78
2022-10-12T11:56:09.440Z,12.78
2022-10-12T11:58:59.274Z,12.79
2022-10-12T12:01:39.517Z,12.81
2022-10-12T12:04:40.545Z,12.83
2022-10-12T12:07:06.813Z,12.87
2022-10-12T12:09:37.603Z,12.93
2022-10-12T12:12:18.052Z,12.96
2022-10-12T12:14:51.333Z,13.01
2022-10-12T12:17:31.563Z,13.01
2022-10-12T12:20:00.412Z,12.98
2022-10-12T12:22:27.168Z,12.95
2022-10-12T12:24:58.275Z,12.91
2022-10-12T12:27:48.200Z,12.86
2022-10-12T12:30:14.950Z,12.81
2022-10-12T12:32:47.479Z,12.76
2022-10-12T12:35:23.266Z,12.72
2022-10-12T12:37:50.294Z,12.73
2022-10-12T12:40:23.239Z,12.72
2022-10-12T12:42:50.003Z,12.75
2022-10-12T12:45:39.102Z,12.76
2022-10-12T12:48:09.416Z,12.77
2022-10-12T12:50:37.415Z,12.81
2022-10-12T12:53:14.311Z,12.79
2022-10-12T12:55:45.916Z,12.77
2022-10-12T12:58:50.782Z,12.77
2022-10-12T13:01:32.793Z,12.81
2022-10-12T13:04:20.759Z,12.85
2022-10-12T13:07:25.962Z,12.90
2022-10-12T13:10:01.813Z,12.97
2022-10-12T13:12:58.872Z,13.01
2022-10-12T13:15:46.084Z,13.06
2022-10-12T13:18:45.386Z,13.14
2022-10-12T13:21:06.871Z,13.21
2022-10-12T13:23:33.691Z,13.26
2022-10-12T13:26:08.929Z,13.30
2022-10-12T13:28:39.291Z,13.34
2022-10-12T13:31:09.581Z,13.37
2022-10-12T13:33:54.567Z,13.39
2022-10-12T13:36:26.087Z,13.42
2022-10-12T13:38:57.345Z,13.44
2022-10-12T13:41:25.581Z,13.46
2022-10-12T13:43:53.445Z,13.46
2022-10-12T13:46:46.134Z,13.48
2022-10-12T13:49:30.177Z,13.49
2022-10-12T13:52:40.171Z,13.50
2022-10-12T13:55:17.889Z,13.51
2022-10-12T13:57:50.139Z,13.49
2022-10-12T14:00:19.447Z,13.43
2022-10-12T14:03:02.991Z,13.36
2022-10-12T14:05:31.276Z,13.29
2022-10-12T14:08:19.614Z,13.22
2022-10-12T14:10:46.348Z,13.12
2022-10-12T14:13:22.593Z,13.04
2022-10-12T14:15:49.303Z,12.95
2022-10-12T14:18:35.761Z,12.88
2022-10-12T14:21:26.818Z,12.80
2022-10-12T14:23:58.011Z,12.73
2022-10-12T14:26:34.997Z,12.67
2022-10-12T14:29:44.592Z,12.62
2022-10-12T14:32:11.287Z,12.55
2022-10-12T14:34:39.203Z,12.50
2022-10-12T14:37:08.809Z,12.47
2022-10-12T14:39:35.952Z,12.41
2022-10-12T14:42:04.668Z,12.36
2022-10-12T14:44:42.044Z,12.26
2022-10-12T14:47:25.028Z,12.24
2022-10-12T14:49:53.513Z,12.20
2022-10-12T14:52:23.004Z,12.17
2022-10-12T14:54:51.680Z,12.12
2022-10-12T14:57:18.909Z,12.08
2022-10-12T14:59:46.324Z,12.01
2022-10-12T15:02:20.390Z,11.93
2022-10-12T15:04:47.173Z,11.89
2022-10-12T15:07:18.135Z,11.83
2022-10-12T15:09:45.155Z,11.78
2022-10-12T15:12:15.662Z,11.73
2022-10-12T15:14:42.563Z,11.66
2022-10-12T15:17:11.672Z,11.61
2022-10-12T15:19:38.643Z,11.56
2022-10-12T15:22:05.305Z,11.53
2022-10-12T15:24:32.056Z,11.50
2022-10-12T15:26:58.682Z,11.46
2022-10-12T15:29:25.363Z,11.42
2022-10-12T15:31:52.949Z,11.37
2022-10-12T15:34:19.774Z,11.33
2022-10-12T15:36:46.517Z,11.28
2022-10-12T15:39:13.104Z,11.28
2022-10-12T15:41:39.790Z,11.24
2022-10-12T15:44:06.376Z,11.21
2022-10-12T15:46:33.031Z,11.16
2022-10-12T15:48:59.726Z,11.13
2022-10-12T15:51:26.355Z,11.09
2022-10-12T15:53:53.316Z,11.04
2022-10-12T15:56:20.260Z,10.95
2022-10-12T15:58:47.134Z,10.83
2022-10-12T16:01:14.831Z,10.73
2022-10-12T16:03:41.737Z,10.59
2022-10-12T16:06:08.750Z,10.44
2022-10-12T16:08:35.580Z,10.30
2022-10-12T16:11:02.802Z,10.16
2022-10-12T16:13:29.588Z,9.99
2022-10-12T16:15:56.370Z,9.85
2022-10-12T16:18:23.110Z,9.69
2022-10-12T16:20:53.562Z,9.54
2022-10-12T16:23:23.798Z,9.39
2022-10-12T16:28:22.400Z,9.16
2022-10-12T16:30:50.006Z,9.02
2022-10-12T16:33:16.954Z,8.91
2022-10-12T16:35:43.710Z,8.80
2022-10-12T16:38:10.424Z,8.71
2022-10-12T16:40:41.432Z,8.62
2022-10-12T16:43:08.466Z,8.53
2022-10-12T16:45:35.153Z,8.47
2022-10-12T16:48:01.947Z,8.41
2022-10-12T16:50:28.538Z,8.34
2022-10-12T16:52:55.277Z,8.29
2022-10-12T16:55:21.964Z,8.24
2022-10-12T16:57:48.643Z,8.20
2022-10-12T17:00:16.937Z,8.14
2022-10-12T17:02:43.649Z,8.09
2022-10-12T17:05:10.374Z,8.04
2022-10-12T17:07:37.004Z,7.99
2022-10-12T17:10:04.119Z,7.95
2022-10-12T17:12:30.803Z,7.89
2022-10-12T17:14:57.910Z,7.84
2022-10-12T17:17:24.580Z,7.78
2022-10-12T17:19:51.358Z,7.72
2022-10-12T17:22:18.431Z,7.68
2022-10-12T17:24:45.335Z,7.64
2022-10-12T17:27:12.511Z,7.58
2022-10-12T17:29:42.091Z,7.55
2022-10-12T17:32:09.878Z,7.51
2022-10-12T17:34:41.248Z,7.48
2022-10-12T17:37:11.265Z,7.45
2022-10-12T17:39:40.105Z,7.42
2022-10-12T17:42:06.944Z,7.39
2022-10-12T17:44:33.793Z,7.35
2022-10-12T17:47:00.563Z,7.32
2022-10-12T17:49:27.381Z,7.28
2022-10-12T17:51:54.116Z,7.24
2022-10-12T17:54:21.424Z,7.20
2022-10-12T17:56:48.090Z,7.17
2022-10-12T17:59:16.033Z,7.15
2022-10-12T18:01:42.711Z,7.12
2022-10-12T18:04:10.170Z,7.09
2022-10-12T18:06:36.833Z,7.07
2022-10-12T18:09:04.697Z,7.05
2022-10-12T18:11:31.425Z,7.02
2022-10-12T18:13:58.127Z,6.99
2022-10-12T18:16:29.957Z,6.96
2022-10-12T18:18:58.234Z,6.93
2022-10-12T18:21:26.114Z,6.90
2022-10-12T18:23:52.877Z,6.86
2022-10-12T18:26:21.782Z,6.83
2022-10-12T18:28:49.736Z,6.80
2022-10-12T18:31:24.316Z,6.75
2022-10-12T18:33:51.536Z,6.71
2022-10-12T18:36:18.404Z,6.69
2022-10-12T18:38:45.324Z,6.68
2022-10-12T18:41:15.383Z,6.68
2022-10-12T18:43:42.115Z,6.66
2022-10-12T18:46:10.272Z,6.65
2022-10-12T18:48:37.048Z,6.64
2022-10-12T18:51:25.140Z,6.61
2022-10-12T18:53:51.901Z,6.56
2022-10-12T18:56:18.991Z,6.56
2022-10-12T18:58:45.750Z,6.54
2022-10-12T19:01:18.041Z,6.52
2022-10-12T19:03:44.855Z,6.49
2022-10-12T19:06:13.357Z,6.46
2022-10-12T19:08:40.426Z,6.43
2022-10-12T19:11:08.238Z,6.38
2022-10-12T19:13:38.766Z,6.36
2022-10-12T19:16:07.524Z,6.33
2022-10-12T19:18:34.317Z,6.29
2022-10-12T19:21:05.507Z,6.26
2022-10-12T19:23:32.216Z,6.22
2022-10-12T19:26:04.298Z,6.18
2022-10-12T19:28:31.000Z,6.15
2022-10-12T19:30:58.738Z,6.10
2022-10-12T19:33:26.772Z,6.04
2022-10-12T19:35:53.523Z,6.03
2022-10-12T19:38:20.506Z,6.01
2022-10-12T19:40:47.321Z,6.00
2022-10-12T19:43:13.980Z,5.97
2022-10-12T19:45:41.014Z,5.95
2022-10-12T19:48:07.924Z,5.95
2022-10-12T19:50:34.621Z,5.93
2022-10-12T19:53:01.561Z,5.91
2022-10-12T19:55:29.988Z,5.90
2022-10-12T19:57:56.720Z,5.88
2022-10-12T20:00:23.648Z,5.87
2022-10-12T20:02:50.312Z,5.85
2022-10-12T20:05:17.006Z,5.80
2022-10-12T20:07:43.720Z,5.81
2022-10-12T20:10:10.394Z,5.80
2022-10-12T20:12:37.126Z,5.79
2022-10-12T20:15:04.189Z,5.78
2022-10-12T20:17:30.899Z,5.76
2022-10-12T20:19:57.656Z,5.75
2022-10-12T20:22:24.317Z,5.74
2022-10-12T20:24:53.811Z,5.70
2022-10-12T20:27:20.502Z,5.67
2022-10-12T20:29:47.395Z,5.65
2022-10-12T20:32:14.059Z,5.62
2022-10-12T20:34:40.737Z,5.60
2022-10-12T20:37:07.432Z,5.59
2022-10-12T20:39:34.098Z,5.56
2022-10-12T20:42:00.771Z,5.54
2022-10-12T20:44:27.632Z,5.52
2022-10-12T20:46:55.047Z,5.51
2022-10-12T20:49:21.809Z,5.50
2022-10-12T20:51:48.573Z,5.48
2022-10-12T20:54:16.247Z,5.46
2022-10-12T20:56:43.379Z,5.44
2022-10-12T20:59:10.490Z,5.43
2022-10-12T21:01:37.299Z,5.42
2022-10-12T21:04:03.913Z,5.41
2022-10-12T21:06:30.607Z,5.40
2022-10-12T21:08:57.437Z,5.38
2022-10-12T21:11:24.063Z,5.33
2022-10-12T21:13:50.966Z,5.34
2022-10-12T21:16:17.712Z,5.32
2022-10-12T21:18:44.438Z,5.27
2022-10-12T21:21:16.207Z,5.28
2022-10-12T21:23:54.134Z,5.26
2022-10-12T21:26:21.665Z,5.25
2022-10-12T21:28:48.392Z,5.25
2022-10-12T21:31:15.211Z,5.25
2022-10-12T21:33:41.860Z,5.25
2022-10-12T21:36:13.534Z,5.25
2022-10-12T21:38:40.489Z,5.25
2022-10-12T21:41:07.676Z,5.25
2022-10-12T21:43:35.369Z,5.25
2022-10-12T21:46:10.175Z,5.27
2022-10-12T21:48:37.086Z,5.28
2022-10-12T21:51:03.814Z,5.28
2022-10-12T21:53:30.674Z,5.29
2022-10-12T21:55:57.259Z,5.30
2022-10-12T21:58:24.040Z,5.30
2022-10-12T22:00:51.041Z,5.30
2022-10-12T22:03:17.712Z,5.30
2022-10-12T22:05:44.517Z,5.30
2022-10-12T22:08:11.196Z,5.30
2022-10-12T22:10:38.989Z,5.31
2022-10-12T22:13:06.450Z,5.32
2022-10-12T22:15:33.626Z,5.32
2022-10-12T22:18:05.055Z,5.33
2022-10-12T22:20:31.720Z,5.33
2022-10-12T22:22:58.549Z,5.33
2022-10-12T22:25:25.293Z,5.33
2022-10-12T22:27:52.073Z,5.33
2022-10-12T22:30:18.884Z,5.31
2022-10-12T22:32:45.649Z,5.30
2022-10-12T22:35:12.448Z,5.28
2022-10-12T22:37:41.684Z,5.27
2022-10-12T22:40:08.636Z,5.25
2022-10-12T22:42:35.425Z,5.25
2022-10-12T22:45:02.199Z,5.25
2022-10-12T22:47:29.031Z,5.24
2022-10-12T22:49:56.130Z,5.23
2022-10-12T22:52:22.955Z,5.22
2022-10-12T22:54:49.994Z,5.22
2022-10-12T22:57:16.833Z,5.20
2022-10-12T22:59:43.473Z,5.20
2022-10-12T23:02:10.339Z,5.20
2022-10-12T23:04:37.078Z,5.19
2022-10-12T23:07:03.996Z,5.19
2022-10-12T23:09:30.659Z,5.20
2022-10-12T23:11:57.431Z,5.22
2022-10-12T23:14:24.178Z,5.23
2022-10-12T23:16:50.909Z,5.25
2022-10-12T23:19:17.585Z,5.26
2022-10-12T23:21:44.246Z,5.26
2022-10-12T23:24:10.909Z,5.27
2022-10-12T23:26:37.611Z,5.27
2022-10-12T23:29:04.297Z,5.27
2022-10-12T23:31:31.043Z,5.27
2022-10-12T23:33:58.931Z,5.27
2022-10-12T23:36:25.684Z,5.27
2022-10-12T23:38:52.354Z,5.27
2022-10-12T23:41:19.103Z,5.28
2022-10-12T23:43:45.740Z,5.29
2022-10-12T23:46:12.633Z,5.29
2022-10-12T23:48:39.274Z,5.29
2022-10-12T23:51:07.919Z,5.29
2022-10-12T23:53:35.190Z,5.27
2022-10-12T23:56:01.902Z,5.30
2022-10-12T23:58:28.587Z,5.34
